createdAt,value
2019-05-12T00:02:29.714Z,6.20
2019-05-12T00:05:18.544Z,6.10
2019-05-12T00:08:08.265Z,6.10
2019-05-12T00:10:57.793Z,6.10
2019-05-12T00:13:47.790Z,6.10
2019-05-12T00:16:35.255Z,6.10
2019-05-12T00:19:22.912Z,6.00
2019-05-12T00:22:11.847Z,6.00
2019-05-12T00:24:59.887Z,6.00
2019-05-12T00:27:48.520Z,6.00
2019-05-12T00:30:48.570Z,5.90
2019-05-12T00:33:35.786Z,6.00
2019-05-12T00:36:23.339Z,5.90
2019-05-12T00:39:11.377Z,5.90
2019-05-12T00:41:59.163Z,5.80
2019-05-12T00:44:47.868Z,5.80
2019-05-12T00:47:35.998Z,5.90
2019-05-12T00:50:23.779Z,5.70
2019-05-12T00:53:11.589Z,5.80
2019-05-12T00:55:59.053Z,5.80
2019-05-12T00:58:48.768Z,5.80
2019-05-12T01:01:38.110Z,5.80
2019-05-12T01:04:26.255Z,5.80
2019-05-12T01:07:13.661Z,5.80
2019-05-12T01:10:03.160Z,5.90
2019-05-12T01:12:51.040Z,5.80
2019-05-12T01:15:38.983Z,5.90
2019-05-12T01:18:28.057Z,5.80
2019-05-12T01:21:18.374Z,5.80
2019-05-12T01:24:05.465Z,5.90
2019-05-12T01:26:53.154Z,5.80
2019-05-12T01:29:40.855Z,5.80
2019-05-12T01:32:32.971Z,5.80
2019-05-12T01:35:20.961Z,5.80
2019-05-12T01:38:08.889Z,5.80
2019-05-12T01:40:58.348Z,5.80
2019-05-12T01:43:48.760Z,5.80
2019-05-12T01:46:38.234Z,5.80
2019-05-12T01:49:25.422Z,5.90
2019-05-12T01:52:13.457Z,5.90
2019-05-12T01:55:01.337Z,5.90
2019-05-12T01:57:48.931Z,6.00
2019-05-12T02:00:38.670Z,6.00
2019-05-12T02:03:28.213Z,6.10
2019-05-12T02:06:15.440Z,6.00
2019-05-12T02:09:08.077Z,6.10
2019-05-12T02:11:58.246Z,6.10
2019-05-12T02:14:45.727Z,6.10
2019-05-12T02:17:33.194Z,6.10
2019-05-12T02:20:21.333Z,6.10
2019-05-12T02:23:09.413Z,6.20
2019-05-12T02:25:58.553Z,6.10
2019-05-12T02:28:48.094Z,6.20
2019-05-12T02:31:35.796Z,6.20
2019-05-12T02:34:25.468Z,6.30
2019-05-12T02:37:15.326Z,6.30
2019-05-12T02:40:04.855Z,6.30
2019-05-12T02:42:54.935Z,6.30
2019-05-12T02:45:44.646Z,6.30
2019-05-12T02:48:31.292Z,6.30
2019-05-12T02:51:18.819Z,6.10
2019-05-12T02:54:07.157Z,6.10
2019-05-12T02:56:55.236Z,6.10
2019-05-12T02:59:46.400Z,6.10
2019-05-12T03:02:36.233Z,6.10
2019-05-12T03:05:24.826Z,6.10
2019-05-12T03:08:15.409Z,6.10
2019-05-12T03:11:06.050Z,6.10
2019-05-12T03:13:54.837Z,6.00
2019-05-12T03:16:41.671Z,5.90
2019-05-12T03:19:29.199Z,5.90
2019-05-12T03:22:16.681Z,5.90
2019-05-12T03:25:15.463Z,5.80
2019-05-12T03:27:54.526Z,5.70
2019-05-12T03:30:47.479Z,5.80
2019-05-12T03:33:40.680Z,5.70
2019-05-12T03:36:20.605Z,5.80
2019-05-12T03:39:09.360Z,5.70
2019-05-12T03:41:56.643Z,5.70
2019-05-12T03:44:44.501Z,5.60
2019-05-12T03:47:34.710Z,5.60
2019-05-12T03:50:24.125Z,5.60
2019-05-12T03:53:11.227Z,5.60
2019-05-12T03:55:58.455Z,5.60
2019-05-12T03:58:45.975Z,5.60
2019-05-12T04:01:36.385Z,5.60
2019-05-12T04:04:24.468Z,5.40
2019-05-12T04:07:15.047Z,5.30
2019-05-12T04:10:04.850Z,5.40
2019-05-12T04:12:51.198Z,5.40
2019-05-12T04:15:38.972Z,5.40
2019-05-12T04:18:27.203Z,5.40
2019-05-12T04:21:16.087Z,5.40
2019-05-12T04:24:05.411Z,5.40
2019-05-12T04:26:55.214Z,5.30
2019-05-12T04:29:44.148Z,5.30
2019-05-12T04:32:35.427Z,5.40
2019-05-12T04:35:21.338Z,5.40
2019-05-12T04:38:08.850Z,5.20
2019-05-12T04:40:57.018Z,5.30
2019-05-12T04:43:44.903Z,5.30
2019-05-12T04:46:34.679Z,5.30
2019-05-12T04:49:25.052Z,5.20
2019-05-12T04:52:15.587Z,5.20
2019-05-12T04:55:04.710Z,5.20
2019-05-12T04:57:54.471Z,5.20
2019-05-12T05:00:44.626Z,5.20
2019-05-12T05:03:34.737Z,5.20
2019-05-12T05:06:20.811Z,5.30
2019-05-12T05:09:09.094Z,5.20
2019-05-12T05:11:57.043Z,5.30
2019-05-12T05:14:45.066Z,5.30
2019-05-12T05:17:34.774Z,5.30
2019-05-12T05:20:23.817Z,5.30
2019-05-12T05:23:13.901Z,5.30
2019-05-12T05:26:03.250Z,5.30
2019-05-12T05:28:50.871Z,5.30
2019-05-12T05:31:38.419Z,5.20
2019-05-12T05:34:26.029Z,5.10
2019-05-12T05:37:14.606Z,5.10
2019-05-12T05:40:03.913Z,5.00
2019-05-12T05:42:54.161Z,5.00
2019-05-12T05:45:43.693Z,5.00
2019-05-12T05:48:34.522Z,5.10
2019-05-12T05:51:20.443Z,4.90
2019-05-12T05:54:07.815Z,4.90
2019-05-12T05:57:01.867Z,4.90
2019-05-12T05:59:45.237Z,5.00
2019-05-12T06:02:40.149Z,4.90
2019-05-12T06:05:26.461Z,5.00
2019-05-12T06:08:16.193Z,5.00
2019-05-12T06:11:01.399Z,5.00
2019-05-12T06:13:50.339Z,5.00
2019-05-12T06:16:38.023Z,5.00
2019-05-12T06:19:26.312Z,4.90
2019-05-12T06:22:18.114Z,5.00
2019-05-12T06:25:04.858Z,5.00
2019-05-12T06:28:00.144Z,5.00
2019-05-12T06:30:46.640Z,5.00
2019-05-12T06:33:36.057Z,4.90
2019-05-12T06:36:27.104Z,4.80
2019-05-12T06:39:19.024Z,4.70
2019-05-12T06:42:11.741Z,4.50
2019-05-12T06:44:55.023Z,4.60
2019-05-12T06:47:47.446Z,4.60
2019-05-12T06:50:36.472Z,4.70
2019-05-12T06:53:20.368Z,4.60
2019-05-12T06:56:09.370Z,4.60
2019-05-12T06:59:01.053Z,4.50
2019-05-12T07:01:49.840Z,4.50
2019-05-12T07:04:41.266Z,4.60
2019-05-12T07:07:27.706Z,4.70
2019-05-12T07:10:35.668Z,4.80
2019-05-12T07:13:06.139Z,4.80
2019-05-12T07:15:55.828Z,4.80
2019-05-12T07:18:44.679Z,4.80
2019-05-12T07:21:33.526Z,4.80
2019-05-12T07:24:23.391Z,4.80
2019-05-12T07:27:10.352Z,4.60
2019-05-12T07:29:57.459Z,4.50
2019-05-12T07:32:45.709Z,4.40
2019-05-12T07:35:34.458Z,4.50
2019-05-12T07:38:25.950Z,4.40
2019-05-12T07:41:15.294Z,4.30
2019-05-12T07:44:03.769Z,4.30
2019-05-12T07:46:53.606Z,4.40
2019-05-12T07:49:41.134Z,4.40
2019-05-12T07:52:28.637Z,4.30
2019-05-12T07:55:16.069Z,4.20
2019-05-12T07:58:13.881Z,4.20
2019-05-12T08:01:02.118Z,4.30
2019-05-12T08:03:43.786Z,4.40
2019-05-12T08:06:32.570Z,4.20
2019-05-12T08:09:24.082Z,4.20
2019-05-12T08:12:19.112Z,4.10
2019-05-12T08:15:05.415Z,4.20
2019-05-12T08:17:55.381Z,4.30
2019-05-12T08:20:39.965Z,4.40
2019-05-12T08:23:27.954Z,4.40
2019-05-12T08:26:18.537Z,4.40
2019-05-12T08:29:04.869Z,4.30
2019-05-12T08:31:54.832Z,4.30
2019-05-12T08:34:43.773Z,4.40
2019-05-12T08:37:33.308Z,4.30
2019-05-12T08:40:21.201Z,4.40
2019-05-12T08:43:10.665Z,4.20
2019-05-12T08:46:00.344Z,4.10
2019-05-12T08:48:51.448Z,3.80
2019-05-12T08:51:37.481Z,3.90
2019-05-12T08:54:25.097Z,3.90
2019-05-12T08:57:14.334Z,3.90
2019-05-12T09:00:06.710Z,4.20
2019-05-12T09:02:53.569Z,4.30
2019-05-12T09:05:41.593Z,4.40
2019-05-12T09:08:30.196Z,4.40
2019-05-12T09:11:17.938Z,4.40
2019-05-12T09:14:06.058Z,4.50
2019-05-12T09:17:02.067Z,4.50
2019-05-12T09:19:43.614Z,4.50
2019-05-12T09:22:34.154Z,4.20
2019-05-12T09:25:20.959Z,4.00
2019-05-12T09:28:08.764Z,4.00
2019-05-12T09:30:56.446Z,3.90
2019-05-12T09:33:44.463Z,3.90
2019-05-12T09:36:33.816Z,4.20
2019-05-12T09:39:23.456Z,4.20
2019-05-12T09:42:14.129Z,4.30
2019-05-12T09:45:08.105Z,4.30
2019-05-12T09:47:50.297Z,4.40
2019-05-12T09:50:37.670Z,4.00
2019-05-12T09:53:25.945Z,4.00
2019-05-12T09:56:14.226Z,3.90
2019-05-12T09:59:10.978Z,3.90
2019-05-12T10:01:51.527Z,3.90
2019-05-12T10:04:39.373Z,3.90
2019-05-12T10:07:27.113Z,4.10
2019-05-12T10:10:14.835Z,4.10
2019-05-12T10:13:04.675Z,4.30
2019-05-12T10:15:53.608Z,4.50
2019-05-12T10:18:42.973Z,4.40
2019-05-12T10:21:33.234Z,4.50
2019-05-12T10:24:21.477Z,4.30
2019-05-12T10:27:09.413Z,4.40
2019-05-12T10:29:57.146Z,4.30
2019-05-12T10:32:44.721Z,4.30
2019-05-12T10:35:35.042Z,4.40
2019-05-12T10:38:24.083Z,4.50
2019-05-12T10:41:13.352Z,4.30
2019-05-12T10:44:00.984Z,4.40
2019-05-12T10:46:53.731Z,4.40
2019-05-12T10:49:44.037Z,4.30
2019-05-12T10:52:34.988Z,4.40
2019-05-12T10:55:21.107Z,4.10
2019-05-12T10:58:08.888Z,4.20
2019-05-12T11:00:58.840Z,4.40
2019-05-12T11:03:50.940Z,4.40
2019-05-12T11:06:39.673Z,4.40
2019-05-12T11:09:29.435Z,4.60
2019-05-12T11:12:19.293Z,4.80
2019-05-12T11:15:06.647Z,4.60
2019-05-12T11:18:30.525Z,4.70
2019-05-12T11:21:16.725Z,4.90
2019-05-12T11:24:04.675Z,4.90
2019-05-12T11:26:53.642Z,4.80
2019-05-12T11:29:48.536Z,4.70
2019-05-12T11:32:34.889Z,4.50
2019-05-12T11:35:21.118Z,4.50
2019-05-12T11:38:08.532Z,4.50
2019-05-12T11:40:56.627Z,4.50
2019-05-12T11:43:44.331Z,4.50
2019-05-12T11:46:36.215Z,4.60
2019-05-12T11:49:26.459Z,4.60
2019-05-12T11:52:16.794Z,4.40
2019-05-12T11:55:01.262Z,4.30
2019-05-12T11:57:49.346Z,4.20
2019-05-12T12:00:39.044Z,4.20
2019-05-12T12:03:26.674Z,4.30
2019-05-12T12:06:14.178Z,4.30
2019-05-12T12:09:03.963Z,4.30
2019-05-12T12:11:56.720Z,4.40
2019-05-12T12:14:46.234Z,4.40
2019-05-12T12:17:35.741Z,4.20
2019-05-12T12:20:24.387Z,4.40
2019-05-12T12:23:14.145Z,4.40
2019-05-12T12:26:03.970Z,4.40
2019-05-12T12:28:53.735Z,4.40
2019-05-12T12:31:52.429Z,4.40
2019-05-12T12:34:40.310Z,4.30
2019-05-12T12:37:27.906Z,4.50
2019-05-12T12:40:16.006Z,4.50
2019-05-12T12:43:04.124Z,4.60
2019-05-12T12:46:10.824Z,4.70
2019-05-12T12:48:54.718Z,4.70
2019-05-12T12:51:43.558Z,4.90
2019-05-12T12:54:33.158Z,4.80
2019-05-12T12:57:20.647Z,4.90
2019-05-12T13:00:09.190Z,4.80
2019-05-12T13:03:00.271Z,4.70
2019-05-12T13:05:47.972Z,4.80
2019-05-12T13:08:35.892Z,4.90
2019-05-12T13:11:33.315Z,5.00
2019-05-12T13:14:13.568Z,4.90
2019-05-12T13:17:01.548Z,5.00
2019-05-12T13:19:54.751Z,5.10
2019-05-12T13:22:38.314Z,5.20
2019-05-12T13:25:26.012Z,5.10
2019-05-12T13:28:18.840Z,5.30
2019-05-12T13:31:08.947Z,5.30
2019-05-12T13:33:54.694Z,5.40
2019-05-12T13:36:44.040Z,5.50
2019-05-12T13:39:33.551Z,5.60
2019-05-12T13:42:20.895Z,5.50
2019-05-12T13:45:09.267Z,5.40
2019-05-12T13:47:56.986Z,5.20
2019-05-12T13:50:44.559Z,5.30
2019-05-12T13:53:33.512Z,5.50
2019-05-12T13:56:25.749Z,5.50
2019-05-12T13:59:12.200Z,5.60
2019-05-12T14:02:00.103Z,5.60
2019-05-12T14:04:48.107Z,5.50
2019-05-12T14:07:35.975Z,5.50
2019-05-12T14:10:24.543Z,5.70
2019-05-12T14:13:14.052Z,5.80
2019-05-12T14:16:05.762Z,5.80
2019-05-12T14:18:56.456Z,5.90
2019-05-12T14:21:42.383Z,5.90
2019-05-12T14:24:33.144Z,5.90
2019-05-12T14:27:25.393Z,5.90
2019-05-12T14:30:11.591Z,6.00
2019-05-12T14:32:59.410Z,6.00
2019-05-12T14:35:47.084Z,6.00
2019-05-12T14:38:34.274Z,5.90
2019-05-12T14:41:26.321Z,5.80
2019-05-12T14:44:13.557Z,5.90
2019-05-12T14:47:00.106Z,5.90
2019-05-12T14:49:47.566Z,5.90
2019-05-12T14:52:35.117Z,5.80
2019-05-12T14:55:24.146Z,5.80
2019-05-12T14:58:15.737Z,5.70
2019-05-12T15:01:00.899Z,5.80
2019-05-12T15:03:49.409Z,5.70
2019-05-12T15:06:37.159Z,5.60
2019-05-12T15:09:24.798Z,5.50
2019-05-12T15:12:14.046Z,5.40
2019-05-12T15:15:03.669Z,5.50
2019-05-12T15:17:55.088Z,5.70
2019-05-12T15:20:41.512Z,5.70
2019-05-12T15:23:37.131Z,5.80
2019-05-12T15:26:19.905Z,5.90
2019-05-12T15:29:13.407Z,5.90
2019-05-12T15:31:56.938Z,6.00
2019-05-12T15:34:44.710Z,6.00
2019-05-12T15:37:35.095Z,6.00
2019-05-12T15:40:23.501Z,5.90
2019-05-12T15:43:10.909Z,5.90
2019-05-12T15:45:59.718Z,5.90
2019-05-12T15:48:47.417Z,5.90
2019-05-12T15:51:38.678Z,5.90
2019-05-12T15:54:24.787Z,5.90
2019-05-12T15:57:13.537Z,5.50
2019-05-12T16:00:01.757Z,5.60
2019-05-12T16:02:49.417Z,5.60
2019-05-12T16:05:36.948Z,5.60
2019-05-12T16:08:24.702Z,5.70
2019-05-12T16:11:14.026Z,5.90
2019-05-12T16:14:02.129Z,5.90
2019-05-12T16:16:49.509Z,6.00
2019-05-12T16:19:37.537Z,6.00
2019-05-12T16:22:25.189Z,5.90
2019-05-12T16:25:15.251Z,5.90
2019-05-12T16:28:07.677Z,5.90
2019-05-12T16:30:53.584Z,5.80
2019-05-12T16:33:43.509Z,5.80
2019-05-12T16:36:30.792Z,5.90
2019-05-12T16:39:18.739Z,5.90
2019-05-12T16:42:10.338Z,5.90
2019-05-12T16:45:05.345Z,5.90
2019-05-12T16:47:45.121Z,5.80
2019-05-12T16:50:34.556Z,5.60
2019-05-12T16:53:27.742Z,5.50
2019-05-12T16:56:14.565Z,5.50
2019-05-12T16:59:07.262Z,5.60
2019-05-12T17:01:50.773Z,5.30
2019-05-12T17:04:38.472Z,5.20
2019-05-12T17:07:27.220Z,5.10
2019-05-12T17:10:16.923Z,5.10
2019-05-12T17:13:07.582Z,5.10
2019-05-12T17:15:59.874Z,5.30
2019-05-12T17:18:44.355Z,5.10
2019-05-12T17:21:33.562Z,5.20
2019-05-12T17:24:23.735Z,5.10
2019-05-12T17:27:18.407Z,5.30
2019-05-12T17:30:00.164Z,5.30
2019-05-12T17:32:58.183Z,5.40
2019-05-12T17:35:37.601Z,5.50
2019-05-12T17:38:25.573Z,5.40
2019-05-12T17:41:17.431Z,5.40
2019-05-12T17:44:04.319Z,5.50
2019-05-12T17:46:54.009Z,5.50
2019-05-12T17:49:43.402Z,5.30
2019-05-12T17:52:30.610Z,5.40
2019-05-12T17:55:18.338Z,5.30
2019-05-12T17:58:05.695Z,5.20
2019-05-12T18:00:53.386Z,5.30
2019-05-12T18:03:48.774Z,5.30
2019-05-12T18:06:31.067Z,5.40
2019-05-12T18:09:20.207Z,5.40
2019-05-12T18:12:08.355Z,5.50
2019-05-12T18:14:56.561Z,5.50
2019-05-12T18:17:49.612Z,5.60
2019-05-12T18:20:39.981Z,5.60
2019-05-12T18:23:28.437Z,5.60
2019-05-12T18:26:16.212Z,5.60
2019-05-12T18:29:04.136Z,5.60
2019-05-12T18:31:53.397Z,5.70
2019-05-12T18:34:44.303Z,5.60
2019-05-12T18:37:31.152Z,5.60
2019-05-12T18:40:18.574Z,5.50
2019-05-12T18:43:06.163Z,5.50
2019-05-12T18:45:57.255Z,5.50
2019-05-12T18:48:42.834Z,5.50
2019-05-12T18:51:30.070Z,5.50
2019-05-12T18:54:17.558Z,5.60
2019-05-12T18:57:07.349Z,5.60
2019-05-12T19:00:01.577Z,5.60
2019-05-12T19:02:44.430Z,5.50
2019-05-12T19:05:32.470Z,5.50
2019-05-12T19:08:20.564Z,5.20
2019-05-12T19:11:20.039Z,5.30
2019-05-12T19:13:58.314Z,5.40
2019-05-12T19:16:46.119Z,5.40
2019-05-12T19:19:33.942Z,5.40
2019-05-12T19:22:24.193Z,5.40
2019-05-12T19:25:14.816Z,5.50
2019-05-12T19:28:07.028Z,5.50
2019-05-12T19:30:54.441Z,5.50
2019-05-12T19:33:52.975Z,5.50
2019-05-12T19:36:36.060Z,5.50
2019-05-12T19:39:25.072Z,5.50
2019-05-12T19:42:15.678Z,5.40
2019-05-12T19:45:00.261Z,5.30
2019-05-12T19:47:49.336Z,5.30
2019-05-12T19:50:37.165Z,5.20
2019-05-12T19:53:24.887Z,5.20
2019-05-12T19:56:14.250Z,5.20
2019-05-12T19:59:04.213Z,5.30
2019-05-12T20:01:53.507Z,5.10
2019-05-12T20:04:43.192Z,5.00
2019-05-12T20:07:30.351Z,5.00
2019-05-12T20:10:18.421Z,4.90
2019-05-12T20:13:06.719Z,4.90
2019-05-12T20:15:54.519Z,4.90
2019-05-12T20:18:47.763Z,4.90
2019-05-12T20:21:31.411Z,4.80
2019-05-12T20:24:19.578Z,4.60
2019-05-12T20:27:10.618Z,4.60
2019-05-12T20:29:57.141Z,4.60
2019-05-12T20:32:45.333Z,4.70
2019-05-12T20:35:33.894Z,4.70
2019-05-12T20:38:27.195Z,4.80
2019-05-12T20:41:21.856Z,4.80
2019-05-12T20:44:00.956Z,4.90
2019-05-12T20:46:48.701Z,4.80
2019-05-12T20:49:36.400Z,4.80
2019-05-12T20:52:24.188Z,4.90
2019-05-12T20:55:14.339Z,4.90
2019-05-12T20:58:01.305Z,4.70
2019-05-12T21:00:50.268Z,4.80
2019-05-12T21:03:39.735Z,4.90
2019-05-12T21:06:33.078Z,4.90
2019-05-12T21:09:17.243Z,4.90
2019-05-12T21:12:04.933Z,4.90
2019-05-12T21:14:55.749Z,5.00
2019-05-12T21:17:45.948Z,5.10
2019-05-12T21:20:33.271Z,5.10
2019-05-12T21:23:20.361Z,5.00
2019-05-12T21:26:08.222Z,4.90
2019-05-12T21:28:55.861Z,4.90
2019-05-12T21:31:44.563Z,4.90
2019-05-12T21:34:34.500Z,4.90
2019-05-12T21:37:21.910Z,4.90
2019-05-12T21:40:09.549Z,5.00
2019-05-12T21:42:57.838Z,5.00
2019-05-12T21:45:46.014Z,5.10
2019-05-12T21:48:34.128Z,5.20
2019-05-12T21:51:23.424Z,5.10
2019-05-12T21:54:13.563Z,5.20
2019-05-12T21:57:01.592Z,5.20
2019-05-12T21:59:49.874Z,5.20
2019-05-12T22:02:38.234Z,5.20
2019-05-12T22:05:47.176Z,5.30
2019-05-12T22:08:22.177Z,5.20
2019-05-12T22:11:11.484Z,5.30
2019-05-12T22:14:00.246Z,5.30
2019-05-12T22:16:50.335Z,5.30
2019-05-12T22:19:38.574Z,5.30
2019-05-12T22:22:29.949Z,5.40
2019-05-12T22:25:17.556Z,5.30
2019-05-12T22:28:09.966Z,5.30
2019-05-12T22:30:55.188Z,5.30
2019-05-12T22:33:50.864Z,5.30
2019-05-12T22:36:33.646Z,5.30
2019-05-12T22:39:24.030Z,5.30
2019-05-12T22:42:20.268Z,5.40
2019-05-12T22:45:03.091Z,5.40
2019-05-12T22:47:55.254Z,5.30
2019-05-12T22:50:43.333Z,5.30
2019-05-12T22:53:31.174Z,5.30
2019-05-12T22:56:19.170Z,5.30
2019-05-12T22:59:06.912Z,5.20
2019-05-12T23:01:55.020Z,5.20
2019-05-12T23:04:43.962Z,5.30
2019-05-12T23:07:33.137Z,5.30
2019-05-12T23:10:21.080Z,5.30
2019-05-12T23:13:09.013Z,5.20
2019-05-12T23:15:56.757Z,5.20
2019-05-12T23:18:44.641Z,5.20
2019-05-12T23:21:32.827Z,5.10
2019-05-12T23:24:20.543Z,5.10
2019-05-12T23:27:13.650Z,5.20
2019-05-12T23:30:10.049Z,5.20
2019-05-12T23:32:52.893Z,5.20
2019-05-12T23:35:44.217Z,5.20
2019-05-12T23:38:33.922Z,5.30
2019-05-12T23:41:23.679Z,5.30
2019-05-12T23:44:10.570Z,5.30
2019-05-12T23:46:58.558Z,5.20
2019-05-12T23:49:47.361Z,5.20
2019-05-12T23:52:35.085Z,5.20
2019-05-12T23:55:24.098Z,5.20
2019-05-12T23:58:14.006Z,5.20
